This is the latest recevied weather packets stored in our database for station/object BMCB-29. If no packets are shown the sender has not sent any weather packets the latest 10 day(s).
| Time | Temp. | Humidity | Pressure | Rain* | Wind** | Luminosity | Snow |
|---|---|---|---|---|---|---|---|
| 1777873844 | 10° C | 10% | 1015.5 hPa | 0 mm | - | - | - |
| 1777869043 | 8.33° C | 10% | 1015 hPa | 0 mm | - | - | - |
| 1777866640 | 8.33° C | 10% | 1015 hPa | 0 mm | - | - | - |
| 1777860643 | 8.89° C | 10% | 1014.7 hPa | 0 mm | - | - | - |
| 1777858842 | 10° C | 10% | 1014.9 hPa | 0 mm | - | - | - |
| 1777851046 | 10.56° C | 10% | 1014.9 hPa | 0 mm | - | - | - |
| 1777850448 | 10.56° C | 10% | 1015 hPa | 0 mm | - | - | - |
| 1777841449 | 11.67° C | 99% | 1014.8 hPa | 0 mm | - | 0 W/m² | - |
| 1777839647 | 12.22° C | 99% | 1014.9 hPa | 0 mm | - | 0 W/m² | - |
| 1777833647 | 13.89° C | 91% | 1014.2 hPa | 0 mm | - | 8 W/m² | - |
| 1777833046 | 14.44° C | 91% | 1014.2 hPa | 0 mm | - | 10 W/m² | - |
| 1777831243 | 15° C | 90% | 1014.1 hPa | 0 mm | - | 48 W/m² | - |
| 1777830645 | 15° C | 89% | 1014.1 hPa | 0 mm | - | 48 W/m² | - |
| 1777825845 | 14.44° C | 91% | 1014.1 hPa | 0 mm | - | 88 W/m² | - |
| 1777818045 | 14.44° C | 93% | 1014.7 hPa | 0 mm | - | 158 W/m² | - |
| 1777813847 | 15° C | 93% | 1015 hPa | 0.25 mm | - | 270 W/m² | - |
| 1777807245 | 12.78° C | 98% | 1015.2 hPa | 3.3 mm | - | 152 W/m² | - |
| 1777804850 | 12.22° C | 97% | 1015.3 hPa | 2.54 mm | - | 108 W/m² | - |
| 1777798843 | 13.33° C | 82% | 1015.1 hPa | 0 mm | - | 100 W/m² | - |
| 1777795843 | 15.56° C | 66% | 1014.6 hPa | 0 mm | - | 90 W/m² | - |
| 1777795247 | 15.56° C | 66% | 1014.4 hPa | 0 mm | - | 114 W/m² | - |
| 1777794644 | 15.56° C | 70% | 1014.3 hPa | 0 mm | - | 176 W/m² | - |
| 1777794045 | 15.56° C | 72% | 1014.3 hPa | 0 mm | - | 190 W/m² | - |
| 1777793445 | 15° C | 75% | 1014.3 hPa | 0 mm | - | 168 W/m² | - |
| 1777792244 | 14.44° C | 92% | 1014.2 hPa | 0 mm | - | 156 W/m² | - |
* Rain latest hour (hover to see other rain measurements)
** Current wind speed in m/s (hover to see current wind gust speed)